sensor_id;sensor_type;location;lat;lon;timestamp;pressure;altitude;pressure_sealevel;temperature;humidity
55191;BME280;41070;50.360;18.742;2023-06-05T00:00:14;99163.22;;;14.29;48.46
55191;BME280;41070;50.360;18.742;2023-06-05T00:03:02;99164.70;;;14.26;48.44
55191;BME280;41070;50.360;18.742;2023-06-05T00:05:30;99165.50;;;14.24;48.59
55191;BME280;41070;50.360;18.742;2023-06-05T00:07:57;99162.47;;;14.22;48.67
55191;BME280;41070;50.360;18.742;2023-06-05T00:10:25;99164.61;;;14.21;48.66
55191;BME280;41070;50.360;18.742;2023-06-05T00:12:53;99163.30;;;14.22;48.79
55191;BME280;41070;50.360;18.742;2023-06-05T00:15:21;99163.79;;;14.19;48.61
55191;BME280;41070;50.360;18.742;2023-06-05T00:17:49;99160.61;;;14.14;48.74
55191;BME280;41070;50.360;18.742;2023-06-05T00:20:17;99161.45;;;14.11;48.99
55191;BME280;41070;50.360;18.742;2023-06-05T00:22:44;99160.61;;;14.10;49.27
55191;BME280;41070;50.360;18.742;2023-06-05T00:25:13;99157.09;;;14.11;49.69
55191;BME280;41070;50.360;18.742;2023-06-05T00:27:41;99161.09;;;14.08;49.83
55191;BME280;41070;50.360;18.742;2023-06-05T00:30:09;99163.73;;;14.06;50.20
55191;BME280;41070;50.360;18.742;2023-06-05T00:32:36;99163.07;;;14.03;50.51
55191;BME280;41070;50.360;18.742;2023-06-05T00:35:05;99163.77;;;14.00;50.81
55191;BME280;41070;50.360;18.742;2023-06-05T00:37:33;99165.08;;;13.93;51.32
55191;BME280;41070;50.360;18.742;2023-06-05T00:40:01;99161.87;;;13.87;51.52
55191;BME280;41070;50.360;18.742;2023-06-05T00:42:28;99163.59;;;13.82;51.41
55191;BME280;41070;50.360;18.742;2023-06-05T00:44:56;99161.70;;;13.76;51.54
55191;BME280;41070;50.360;18.742;2023-06-05T00:47:24;99160.61;;;13.73;51.30
55191;BME280;41070;50.360;18.742;2023-06-05T00:49:52;99159.91;;;13.69;51.35
55191;BME280;41070;50.360;18.742;2023-06-05T00:52:20;99160.35;;;13.65;51.38
55191;BME280;41070;50.360;18.742;2023-06-05T00:54:48;99162.27;;;13.65;51.64
55191;BME280;41070;50.360;18.742;2023-06-05T00:57:16;99164.23;;;13.63;51.82
55191;BME280;41070;50.360;18.742;2023-06-05T00:59:44;99161.12;;;13.58;52.33
55191;BME280;41070;50.360;18.742;2023-06-05T01:02:12;99157.00;;;13.50;52.39
55191;BME280;41070;50.360;18.742;2023-06-05T01:04:40;99150.86;;;13.40;52.11
55191;BME280;41070;50.360;18.742;2023-06-05T01:07:10;99147.47;;;13.31;51.81
55191;BME280;41070;50.360;18.742;2023-06-05T01:09:40;99148.35;;;13.29;51.89
55191;BME280;41070;50.360;18.742;2023-06-05T01:12:17;99152.03;;;13.34;51.86
55191;BME280;41070;50.360;18.742;2023-06-05T01:14:48;99144.44;;;13.38;51.52
55191;BME280;41070;50.360;18.742;2023-06-05T01:17:18;99145.13;;;13.41;51.43
55191;BME280;41070;50.360;18.742;2023-06-05T01:19:46;99142.58;;;13.43;51.19
55191;BME280;41070;50.360;18.742;2023-06-05T01:22:16;99144.85;;;13.46;51.11
55191;BME280;41070;50.360;18.742;2023-06-05T01:24:43;99143.51;;;13.47;51.03
55191;BME280;41070;50.360;18.742;2023-06-05T01:27:15;99144.91;;;13.49;51.15
55191;BME280;41070;50.360;18.742;2023-06-05T01:32:28;99142.30;;;13.51;50.95
55191;BME280;41070;50.360;18.742;2023-06-05T01:34:58;99140.58;;;13.53;50.99
55191;BME280;41070;50.360;18.742;2023-06-05T01:37:26;99144.33;;;13.53;50.92
55191;BME280;41070;50.360;18.742;2023-06-05T01:39:55;99145.13;;;13.51;50.89
55191;BME280;41070;50.360;18.742;2023-06-05T01:42:23;99141.52;;;13.48;50.88
55191;BME280;41070;50.360;18.742;2023-06-05T01:44:52;99144.25;;;13.46;50.92
55191;BME280;41070;50.360;18.742;2023-06-05T01:47:19;99145.79;;;13.43;50.97
55191;BME280;41070;50.360;18.742;2023-06-05T01:49:48;99141.23;;;13.42;51.01
55191;BME280;41070;50.360;18.742;2023-06-05T01:52:15;99143.44;;;13.40;51.02
55191;BME280;41070;50.360;18.742;2023-06-05T01:54:43;99142.38;;;13.39;51.11
55191;BME280;41070;50.360;18.742;2023-06-05T01:57:12;99141.78;;;13.36;51.14
55191;BME280;41070;50.360;18.742;2023-06-05T01:59:41;99144.32;;;13.36;51.16
55191;BME280;41070;50.360;18.742;2023-06-05T02:02:09;99141.45;;;13.35;51.21
55191;BME280;41070;50.360;18.742;2023-06-05T02:04:38;99140.52;;;13.32;51.21
55191;BME280;41070;50.360;18.742;2023-06-05T02:07:05;99137.21;;;13.29;51.36
55191;BME280;41070;50.360;18.742;2023-06-05T02:09:33;99140.77;;;13.27;51.43
55191;BME280;41070;50.360;18.742;2023-06-05T02:12:01;99140.35;;;13.26;51.28
55191;BME280;41070;50.360;18.742;2023-06-05T02:14:30;99140.17;;;13.25;51.54
55191;BME280;41070;50.360;18.742;2023-06-05T02:17:02;99136.06;;;13.23;51.63
55191;BME280;41070;50.360;18.742;2023-06-05T02:19:31;99133.66;;;13.19;51.66
55191;BME280;41070;50.360;18.742;2023-06-05T02:21:58;99133.18;;;13.15;51.83
55191;BME280;41070;50.360;18.742;2023-06-05T02:24:26;99130.43;;;13.12;51.99
55191;BME280;41070;50.360;18.742;2023-06-05T02:26:54;99133.45;;;13.10;52.06
55191;BME280;41070;50.360;18.742;2023-06-05T02:29:23;99132.19;;;13.09;52.22
55191;BME280;41070;50.360;18.742;2023-06-05T02:31:50;99129.16;;;13.11;52.31
55191;BME280;41070;50.360;18.742;2023-06-05T02:34:18;99130.84;;;13.11;52.27
55191;BME280;41070;50.360;18.742;2023-06-05T02:36:46;99130.51;;;13.10;52.36
55191;BME280;41070;50.360;18.742;2023-06-05T02:39:13;99133.39;;;13.08;52.58
55191;BME280;41070;50.360;18.742;2023-06-05T02:41:41;99132.30;;;13.08;52.53
55191;BME280;41070;50.360;18.742;2023-06-05T02:44:08;99128.73;;;13.06;52.70
55191;BME280;41070;50.360;18.742;2023-06-05T02:46:36;99129.66;;;13.06;52.83
55191;BME280;41070;50.360;18.742;2023-06-05T02:49:04;99132.70;;;13.05;52.86
55191;BME280;41070;50.360;18.742;2023-06-05T02:51:31;99134.73;;;13.00;53.03
55191;BME280;41070;50.360;18.742;2023-06-05T02:53:59;99132.48;;;12.97;53.09
55191;BME280;41070;50.360;18.742;2023-06-05T02:56:27;99129.90;;;12.95;53.29
55191;BME280;41070;50.360;18.742;2023-06-05T02:58:55;99132.22;;;12.93;53.45
55191;BME280;41070;50.360;18.742;2023-06-05T03:01:24;99135.44;;;12.89;53.64
55191;BME280;41070;50.360;18.742;2023-06-05T03:03:56;99135.73;;;12.88;53.68
55191;BME280;41070;50.360;18.742;2023-06-05T03:06:25;99134.33;;;12.88;53.77
55191;BME280;41070;50.360;18.742;2023-06-05T03:08:53;99135.22;;;12.90;53.96
55191;BME280;41070;50.360;18.742;2023-06-05T03:11:23;99134.46;;;12.93;54.01
55191;BME280;41070;50.360;18.742;2023-06-05T03:13:52;99135.50;;;12.94;54.26
55191;BME280;41070;50.360;18.742;2023-06-05T03:16:19;99138.27;;;12.95;54.31
55191;BME280;41070;50.360;18.742;2023-06-05T03:18:49;99133.88;;;12.97;54.28
55191;BME280;41070;50.360;18.742;2023-06-05T03:21:17;99137.30;;;12.99;54.20
55191;BME280;41070;50.360;18.742;2023-06-05T03:23:44;99133.89;;;13.01;54.40
55191;BME280;41070;50.360;18.742;2023-06-05T03:26:12;99130.15;;;13.01;54.27
55191;BME280;41070;50.360;18.742;2023-06-05T03:28:39;99129.90;;;13.01;54.30
55191;BME280;41070;50.360;18.742;2023-06-05T03:31:07;99132.32;;;13.02;54.15
55191;BME280;41070;50.360;18.742;2023-06-05T03:33:35;99132.77;;;13.05;54.32
55191;BME280;41070;50.360;18.742;2023-06-05T03:36:03;99137.14;;;13.08;54.29
55191;BME280;41070;50.360;18.742;2023-06-05T03:38:31;99132.70;;;13.11;54.36
55191;BME280;41070;50.360;18.742;2023-06-05T03:40:59;99135.98;;;13.13;54.43
55191;BME280;41070;50.360;18.742;2023-06-05T03:43:26;99133.13;;;13.15;54.43
55191;BME280;41070;50.360;18.742;2023-06-05T03:45:54;99131.42;;;13.19;54.37
55191;BME280;41070;50.360;18.742;2023-06-05T03:48:21;99133.97;;;13.22;54.34
55191;BME280;41070;50.360;18.742;2023-06-05T03:50:50;99134.23;;;13.26;54.44
55191;BME280;41070;50.360;18.742;2023-06-05T03:53:19;99133.31;;;13.29;54.42
55191;BME280;41070;50.360;18.742;2023-06-05T03:55:49;99139.02;;;13.33;54.63
55191;BME280;41070;50.360;18.742;2023-06-05T03:58:18;99140.41;;;13.36;54.75
55191;BME280;41070;50.360;18.742;2023-06-05T04:00:47;99140.48;;;13.39;54.82
55191;BME280;41070;50.360;18.742;2023-06-05T04:03:16;99142.73;;;13.43;54.88
55191;BME280;41070;50.360;18.742;2023-06-05T04:05:44;99144.16;;;13.46;54.89
55191;BME280;41070;50.360;18.742;2023-06-05T04:08:12;99144.16;;;13.49;55.13
55191;BME280;41070;50.360;18.742;2023-06-05T04:10:40;99145.36;;;13.51;55.14
55191;BME280;41070;50.360;18.742;2023-06-05T04:13:07;99141.77;;;13.55;55.08
55191;BME280;41070;50.360;18.742;2023-06-05T04:15:35;99139.54;;;13.61;55.15
55191;BME280;41070;50.360;18.742;2023-06-05T04:18:03;99140.79;;;13.66;55.30
55191;BME280;41070;50.360;18.742;2023-06-05T04:20:31;99139.30;;;13.71;55.24
55191;BME280;41070;50.360;18.742;2023-06-05T04:22:58;99138.55;;;13.75;55.49
55191;BME280;41070;50.360;18.742;2023-06-05T04:25:26;99137.67;;;13.81;55.66
55191;BME280;41070;50.360;18.742;2023-06-05T04:27:55;99131.64;;;13.86;55.45
55191;BME280;41070;50.360;18.742;2023-06-05T04:30:23;99129.14;;;13.91;55.50
55191;BME280;41070;50.360;18.742;2023-06-05T04:32:51;99131.09;;;13.96;55.32
55191;BME280;41070;50.360;18.742;2023-06-05T04:35:21;99136.03;;;14.01;55.34
55191;BME280;41070;50.360;18.742;2023-06-05T04:37:49;99131.39;;;14.07;55.21
55191;BME280;41070;50.360;18.742;2023-06-05T04:40:18;99135.07;;;14.13;55.29
55191;BME280;41070;50.360;18.742;2023-06-05T04:42:46;99135.91;;;14.20;55.28
55191;BME280;41070;50.360;18.742;2023-06-05T04:45:14;99137.30;;;14.28;55.23
55191;BME280;41070;50.360;18.742;2023-06-05T04:47:43;99138.05;;;14.34;55.23
55191;BME280;41070;50.360;18.742;2023-06-05T04:50:25;99140.27;;;14.42;55.40
55191;BME280;41070;50.360;18.742;2023-06-05T04:52:53;99138.67;;;14.50;55.19
55191;BME280;41070;50.360;18.742;2023-06-05T04:55:21;99137.98;;;14.58;55.27
55191;BME280;41070;50.360;18.742;2023-06-05T04:57:48;99136.56;;;14.64;54.97
55191;BME280;41070;50.360;18.742;2023-06-05T05:00:17;99135.45;;;14.70;54.79
55191;BME280;41070;50.360;18.742;2023-06-05T05:02:45;99134.05;;;14.78;54.92
55191;BME280;41070;50.360;18.742;2023-06-05T05:05:13;99131.84;;;14.83;54.83
55191;BME280;41070;50.360;18.742;2023-06-05T05:07:42;99131.42;;;14.90;54.99
55191;BME280;41070;50.360;18.742;2023-06-05T05:10:10;99130.84;;;14.95;54.89
55191;BME280;41070;50.360;18.742;2023-06-05T05:12:38;99130.23;;;15.01;54.92
55191;BME280;41070;50.360;18.742;2023-06-05T05:15:06;99132.59;;;15.08;55.11
55191;BME280;41070;50.360;18.742;2023-06-05T05:17:34;99136.81;;;15.17;55.39
55191;BME280;41070;50.360;18.742;2023-06-05T05:20:02;99140.05;;;15.25;55.69
55191;BME280;41070;50.360;18.742;2023-06-05T05:22:32;99141.10;;;15.34;55.34
55191;BME280;41070;50.360;18.742;2023-06-05T05:25:00;99140.55;;;15.42;55.46
55191;BME280;41070;50.360;18.742;2023-06-05T05:27:27;99139.23;;;15.52;55.37
55191;BME280;41070;50.360;18.742;2023-06-05T05:29:55;99135.98;;;15.62;55.26
55191;BME280;41070;50.360;18.742;2023-06-05T05:32:23;99131.82;;;15.70;54.82
55191;BME280;41070;50.360;18.742;2023-06-05T05:34:50;99131.02;;;15.78;54.53
55191;BME280;41070;50.360;18.742;2023-06-05T05:37:18;99134.15;;;15.86;54.36
55191;BME280;41070;50.360;18.742;2023-06-05T05:39:45;99133.94;;;15.93;54.31
55191;BME280;41070;50.360;18.742;2023-06-05T05:42:13;99130.20;;;16.03;54.36
55191;BME280;41070;50.360;18.742;2023-06-05T05:44:40;99135.65;;;16.12;54.75
55191;BME280;41070;50.360;18.742;2023-06-05T05:47:08;99135.00;;;16.22;54.59
55191;BME280;41070;50.360;18.742;2023-06-05T05:49:36;99139.41;;;16.34;55.00
55191;BME280;41070;50.360;18.742;2023-06-05T05:52:04;99140.67;;;16.45;54.46
55191;BME280;41070;50.360;18.742;2023-06-05T05:54:31;99144.41;;;16.54;53.95
55191;BME280;41070;50.360;18.742;2023-06-05T05:56:59;99144.95;;;16.61;53.74
55191;BME280;41070;50.360;18.742;2023-06-05T05:59:27;99147.36;;;16.69;53.88
55191;BME280;41070;50.360;18.742;2023-06-05T06:01:54;99147.40;;;16.80;53.65
55191;BME280;41070;50.360;18.742;2023-06-05T06:04:24;99153.17;;;16.90;53.16
55191;BME280;41070;50.360;18.742;2023-06-05T06:06:52;99152.44;;;17.02;53.32
55191;BME280;41070;50.360;18.742;2023-06-05T06:09:22;99155.12;;;17.16;53.17
55191;BME280;41070;50.360;18.742;2023-06-05T06:11:51;99157.70;;;17.28;53.18
55191;BME280;41070;50.360;18.742;2023-06-05T06:14:22;99155.71;;;17.41;53.56
55191;BME280;41070;50.360;18.742;2023-06-05T06:16:49;99157.59;;;17.54;53.34
55191;BME280;41070;50.360;18.742;2023-06-05T06:19:17;99156.20;;;17.64;52.46
55191;BME280;41070;50.360;18.742;2023-06-05T06:21:50;99156.64;;;17.70;51.88
55191;BME280;41070;50.360;18.742;2023-06-05T06:24:17;99160.02;;;17.80;52.54
55191;BME280;41070;50.360;18.742;2023-06-05T06:26:46;99155.02;;;17.92;52.45
55191;BME280;41070;50.360;18.742;2023-06-05T06:29:18;99156.48;;;18.03;51.69
55191;BME280;41070;50.360;18.742;2023-06-05T06:31:46;99154.92;;;18.15;51.18
55191;BME280;41070;50.360;18.742;2023-06-05T06:34:15;99151.56;;;18.24;51.09
55191;BME280;41070;50.360;18.742;2023-06-05T06:36:43;99155.17;;;18.35;50.55
55191;BME280;41070;50.360;18.742;2023-06-05T06:39:12;99155.91;;;18.46;49.83
55191;BME280;41070;50.360;18.742;2023-06-05T06:41:40;99161.45;;;18.56;49.95
55191;BME280;41070;50.360;18.742;2023-06-05T06:44:07;99160.78;;;18.66;49.84
55191;BME280;41070;50.360;18.742;2023-06-05T06:46:35;99159.89;;;18.77;49.77
55191;BME280;41070;50.360;18.742;2023-06-05T06:49:03;99159.86;;;18.88;49.65
55191;BME280;41070;50.360;18.742;2023-06-05T06:51:32;99160.89;;;18.98;49.50
55191;BME280;41070;50.360;18.742;2023-06-05T06:54:00;99157.48;;;19.08;49.00
55191;BME280;41070;50.360;18.742;2023-06-05T06:56:27;99158.13;;;19.18;48.35
55191;BME280;41070;50.360;18.742;2023-06-05T06:58:55;99152.39;;;19.29;48.48
55191;BME280;41070;50.360;18.742;2023-06-05T07:01:23;99153.73;;;19.38;48.02
55191;BME280;41070;50.360;18.742;2023-06-05T07:03:51;99149.08;;;19.48;47.77
55191;BME280;41070;50.360;18.742;2023-06-05T07:06:18;99149.91;;;19.57;46.97
55191;BME280;41070;50.360;18.742;2023-06-05T07:08:48;99153.94;;;19.62;46.20
55191;BME280;41070;50.360;18.742;2023-06-05T07:11:16;99154.33;;;19.69;46.48
55191;BME280;41070;50.360;18.742;2023-06-05T07:13:44;99149.52;;;19.78;45.69
55191;BME280;41070;50.360;18.742;2023-06-05T07:16:11;99149.21;;;19.84;45.10
55191;BME280;41070;50.360;18.742;2023-06-05T07:18:39;99147.80;;;19.92;45.40
55191;BME280;41070;50.360;18.742;2023-06-05T07:21:07;99151.05;;;20.00;45.64
55191;BME280;41070;50.360;18.742;2023-06-05T07:23:34;99148.92;;;20.09;46.38
55191;BME280;41070;50.360;18.742;2023-06-05T07:26:03;99154.32;;;20.19;45.78
55191;BME280;41070;50.360;18.742;2023-06-05T07:28:30;99154.30;;;20.27;45.85
55191;BME280;41070;50.360;18.742;2023-06-05T07:30:58;99156.13;;;20.34;45.78
55191;BME280;41070;50.360;18.742;2023-06-05T07:33:29;99156.80;;;20.40;44.98
55191;BME280;41070;50.360;18.742;2023-06-05T07:35:58;99154.21;;;20.46;45.00
55191;BME280;41070;50.360;18.742;2023-06-05T07:38:26;99157.44;;;20.54;44.83
55191;BME280;41070;50.360;18.742;2023-06-05T07:40:56;99156.81;;;20.63;45.16
55191;BME280;41070;50.360;18.742;2023-06-05T07:43:24;99153.96;;;20.72;44.50
55191;BME280;41070;50.360;18.742;2023-06-05T07:45:52;99152.11;;;20.85;44.51
55191;BME280;41070;50.360;18.742;2023-06-05T07:48:20;99152.30;;;20.93;43.76
55191;BME280;41070;50.360;18.742;2023-06-05T07:50:47;99154.78;;;21.04;44.36
55191;BME280;41070;50.360;18.742;2023-06-05T07:53:15;99151.33;;;21.10;43.67
55191;BME280;41070;50.360;18.742;2023-06-05T07:55:42;99154.61;;;21.16;42.87
55191;BME280;41070;50.360;18.742;2023-06-05T07:58:10;99147.61;;;21.18;42.00
55191;BME280;41070;50.360;18.742;2023-06-05T08:00:38;99150.92;;;21.23;42.72
55191;BME280;41070;50.360;18.742;2023-06-05T08:03:07;99146.57;;;21.33;42.92
55191;BME280;41070;50.360;18.742;2023-06-05T08:05:35;99148.36;;;21.44;42.61
55191;BME280;41070;50.360;18.742;2023-06-05T08:08:03;99145.44;;;21.50;42.06
55191;BME280;41070;50.360;18.742;2023-06-05T08:10:30;99143.29;;;21.56;41.97
55191;BME280;41070;50.360;18.742;2023-06-05T08:12:58;99134.42;;;21.64;40.68
55191;BME280;41070;50.360;18.742;2023-06-05T08:15:25;99132.48;;;21.71;40.38
55191;BME280;41070;50.360;18.742;2023-06-05T08:17:53;99133.73;;;21.79;41.03
55191;BME280;41070;50.360;18.742;2023-06-05T08:20:20;99129.13;;;21.88;40.53
55191;BME280;41070;50.360;18.742;2023-06-05T08:22:48;99126.77;;;21.90;39.05
55191;BME280;41070;50.360;18.742;2023-06-05T08:25:16;99128.55;;;21.92;38.77
55191;BME280;41070;50.360;18.742;2023-06-05T08:27:44;99128.63;;;21.92;37.90
55191;BME280;41070;50.360;18.742;2023-06-05T08:30:11;99128.66;;;21.95;38.33
55191;BME280;41070;50.360;18.742;2023-06-05T08:32:39;99128.02;;;21.98;38.30
55191;BME280;41070;50.360;18.742;2023-06-05T08:35:07;99130.86;;;22.01;37.78
55191;BME280;41070;50.360;18.742;2023-06-05T08:37:35;99130.21;;;22.02;37.58
55191;BME280;41070;50.360;18.742;2023-06-05T08:40:03;99132.42;;;22.07;38.03
55191;BME280;41070;50.360;18.742;2023-06-05T08:42:32;99134.48;;;22.11;37.50
55191;BME280;41070;50.360;18.742;2023-06-05T08:45:00;99135.86;;;22.20;38.10
55191;BME280;41070;50.360;18.742;2023-06-05T08:47:29;99134.90;;;22.26;37.38
55191;BME280;41070;50.360;18.742;2023-06-05T08:49:57;99133.73;;;22.31;37.71
55191;BME280;41070;50.360;18.742;2023-06-05T08:52:32;99128.41;;;22.38;37.43
55191;BME280;41070;50.360;18.742;2023-06-05T08:55:03;99129.88;;;22.40;37.76
55191;BME280;41070;50.360;18.742;2023-06-05T08:57:34;99123.88;;;22.47;37.52
55191;BME280;41070;50.360;18.742;2023-06-05T09:00:05;99123.86;;;22.54;38.03
55191;BME280;41070;50.360;18.742;2023-06-05T09:02:38;99120.21;;;22.58;37.88
55191;BME280;41070;50.360;18.742;2023-06-05T09:05:06;99124.38;;;22.62;37.47
55191;BME280;41070;50.360;18.742;2023-06-05T09:07:35;99123.34;;;22.74;38.38
55191;BME280;41070;50.360;18.742;2023-06-05T09:10:07;99117.77;;;22.87;37.98
55191;BME280;41070;50.360;18.742;2023-06-05T09:12:52;99115.55;;;22.96;38.01
55191;BME280;41070;50.360;18.742;2023-06-05T09:15:27;99120.13;;;23.04;38.20
55191;BME280;41070;50.360;18.742;2023-06-05T09:18:12;99122.46;;;23.15;38.30
55191;BME280;41070;50.360;18.742;2023-06-05T09:20:43;99117.67;;;23.26;36.62
55191;BME280;41070;50.360;18.742;2023-06-05T09:23:23;99120.35;;;23.39;37.60
55191;BME280;41070;50.360;18.742;2023-06-05T09:26:00;99120.81;;;23.43;36.74
55191;BME280;41070;50.360;18.742;2023-06-05T09:28:29;99114.52;;;23.33;35.96
55191;BME280;41070;50.360;18.742;2023-06-05T09:30:59;99113.19;;;23.29;35.30
55191;BME280;41070;50.360;18.742;2023-06-05T09:33:29;99108.89;;;23.34;35.58
55191;BME280;41070;50.360;18.742;2023-06-05T09:36:07;99109.64;;;23.40;35.76
55191;BME280;41070;50.360;18.742;2023-06-05T09:38:36;99108.38;;;23.54;36.10
55191;BME280;41070;50.360;18.742;2023-06-05T09:41:11;99105.11;;;23.72;35.29
55191;BME280;41070;50.360;18.742;2023-06-05T09:43:40;99107.03;;;23.87;35.22
55191;BME280;41070;50.360;18.742;2023-06-05T09:46:13;99103.59;;;24.00;35.46
55191;BME280;41070;50.360;18.742;2023-06-05T09:48:42;99101.98;;;24.13;35.70
55191;BME280;41070;50.360;18.742;2023-06-05T09:51:17;99097.84;;;24.26;35.67
55191;BME280;41070;50.360;18.742;2023-06-05T09:53:48;99101.10;;;24.26;34.80
55191;BME280;41070;50.360;18.742;2023-06-05T09:56:20;99101.80;;;24.30;35.43
55191;BME280;41070;50.360;18.742;2023-06-05T09:58:50;99103.94;;;24.32;34.65
55191;BME280;41070;50.360;18.742;2023-06-05T10:01:21;99101.17;;;24.34;34.25
55191;BME280;41070;50.360;18.742;2023-06-05T10:04:05;99096.94;;;24.31;34.33
55191;BME280;41070;50.360;18.742;2023-06-05T10:06:33;99095.54;;;24.38;34.54
55191;BME280;41070;50.360;18.742;2023-06-05T10:09:01;99089.05;;;24.46;34.82
55191;BME280;41070;50.360;18.742;2023-06-05T10:11:29;99088.13;;;24.49;35.03
55191;BME280;41070;50.360;18.742;2023-06-05T10:13:57;99090.66;;;24.52;34.45
55191;BME280;41070;50.360;18.742;2023-06-05T10:16:27;99087.28;;;24.56;33.87
55191;BME280;41070;50.360;18.742;2023-06-05T10:18:56;99084.11;;;24.65;33.89
55191;BME280;41070;50.360;18.742;2023-06-05T10:21:24;99086.84;;;24.79;34.31
55191;BME280;41070;50.360;18.742;2023-06-05T10:23:58;99082.35;;;24.88;34.41
55191;BME280;41070;50.360;18.742;2023-06-05T10:26:43;99077.73;;;24.91;33.43
55191;BME280;41070;50.360;18.742;2023-06-05T10:29:38;99078.60;;;24.87;33.58
55191;BME280;41070;50.360;18.742;2023-06-05T10:34:56;99069.69;;;25.10;33.55
55191;BME280;41070;50.360;18.742;2023-06-05T10:40:36;99081.20;;;25.35;33.87
55191;BME280;41070;50.360;18.742;2023-06-05T10:43:26;99078.40;;;25.34;33.97
55191;BME280;41070;50.360;18.742;2023-06-05T10:45:55;99078.70;;;25.45;33.52
55191;BME280;41070;50.360;18.742;2023-06-05T10:51:43;99073.92;;;25.26;32.01
55191;BME280;41070;50.360;18.742;2023-06-05T10:59:21;99069.54;;;25.35;32.05
55191;BME280;41070;50.360;18.742;2023-06-05T11:07:22;99071.97;;;25.74;32.24
55191;BME280;41070;50.360;18.742;2023-06-05T11:15:04;99072.30;;;25.65;32.54
55191;BME280;41070;50.360;18.742;2023-06-05T11:17:33;99066.30;;;25.63;32.38
55191;BME280;41070;50.360;18.742;2023-06-05T11:20:03;99064.23;;;25.67;32.51
55191;BME280;41070;50.360;18.742;2023-06-05T11:27:58;99064.35;;;25.57;32.37
55191;BME280;41070;50.360;18.742;2023-06-05T11:30:29;99066.21;;;25.52;32.16
55191;BME280;41070;50.360;18.742;2023-06-05T11:35:35;99060.20;;;25.40;32.09
55191;BME280;41070;50.360;18.742;2023-06-05T11:40:35;99058.16;;;25.43;32.74
55191;BME280;41070;50.360;18.742;2023-06-05T11:43:04;99054.39;;;25.49;32.36
55191;BME280;41070;50.360;18.742;2023-06-05T11:45:33;99052.95;;;25.45;32.39
55191;BME280;41070;50.360;18.742;2023-06-05T11:48:12;99046.24;;;25.46;32.19
55191;BME280;41070;50.360;18.742;2023-06-05T11:51:01;99044.89;;;25.45;32.93
55191;BME280;41070;50.360;18.742;2023-06-05T11:53:30;99047.71;;;25.42;33.13
55191;BME280;41070;50.360;18.742;2023-06-05T11:55:59;99047.14;;;25.54;33.03
55191;BME280;41070;50.360;18.742;2023-06-05T11:58:35;99047.02;;;25.53;33.37
55191;BME280;41070;50.360;18.742;2023-06-05T12:01:17;99049.87;;;25.40;32.22
55191;BME280;41070;50.360;18.742;2023-06-05T12:04:01;99050.25;;;25.37;32.29
55191;BME280;41070;50.360;18.742;2023-06-05T12:06:29;99049.27;;;25.26;31.31
55191;BME280;41070;50.360;18.742;2023-06-05T12:09:10;99049.08;;;25.02;31.68
55191;BME280;41070;50.360;18.742;2023-06-05T12:11:40;99045.35;;;24.88;31.77
55191;BME280;41070;50.360;18.742;2023-06-05T12:14:10;99040.07;;;24.74;31.71
55191;BME280;41070;50.360;18.742;2023-06-05T12:16:41;99037.77;;;24.61;31.60
55191;BME280;41070;50.360;18.742;2023-06-05T12:19:12;99037.59;;;24.55;32.22
55191;BME280;41070;50.360;18.742;2023-06-05T12:21:41;99034.80;;;24.68;33.09
55191;BME280;41070;50.360;18.742;2023-06-05T12:24:08;99031.80;;;24.73;32.72
55191;BME280;41070;50.360;18.742;2023-06-05T12:26:55;99031.59;;;24.82;32.57
55191;BME280;41070;50.360;18.742;2023-06-05T12:29:29;99032.14;;;24.94;31.37
55191;BME280;41070;50.360;18.742;2023-06-05T12:31:58;99033.19;;;25.12;32.62
55191;BME280;41070;50.360;18.742;2023-06-05T12:34:45;99025.95;;;25.30;32.64
55191;BME280;41070;50.360;18.742;2023-06-05T12:37:27;99027.45;;;25.44;32.71
55191;BME280;41070;50.360;18.742;2023-06-05T12:39:56;99025.20;;;25.41;32.01
55191;BME280;41070;50.360;18.742;2023-06-05T12:42:25;99021.75;;;25.44;32.37
55191;BME280;41070;50.360;18.742;2023-06-05T12:44:53;99018.42;;;25.60;32.59
55191;BME280;41070;50.360;18.742;2023-06-05T12:47:21;99015.88;;;25.75;32.23
55191;BME280;41070;50.360;18.742;2023-06-05T12:49:49;99012.60;;;25.86;31.91
55191;BME280;41070;50.360;18.742;2023-06-05T12:52:17;99008.52;;;25.78;30.99
55191;BME280;41070;50.360;18.742;2023-06-05T12:54:45;99008.85;;;25.69;31.46
55191;BME280;41070;50.360;18.742;2023-06-05T12:57:12;99006.88;;;25.69;32.03
55191;BME280;41070;50.360;18.742;2023-06-05T12:59:40;99006.94;;;25.59;31.83
55191;BME280;41070;50.360;18.742;2023-06-05T13:02:08;99005.60;;;25.56;32.08
55191;BME280;41070;50.360;18.742;2023-06-05T13:04:36;98998.17;;;25.62;32.40
55191;BME280;41070;50.360;18.742;2023-06-05T13:07:06;98996.54;;;25.59;31.54
55191;BME280;41070;50.360;18.742;2023-06-05T13:09:34;98994.05;;;25.60;31.37
55191;BME280;41070;50.360;18.742;2023-06-05T13:12:02;98994.80;;;25.56;31.85
55191;BME280;41070;50.360;18.742;2023-06-05T13:14:33;98992.14;;;25.65;31.98
55191;BME280;41070;50.360;18.742;2023-06-05T13:17:01;98988.77;;;25.82;32.23
55191;BME280;41070;50.360;18.742;2023-06-05T13:19:28;98988.03;;;25.99;32.66
55191;BME280;41070;50.360;18.742;2023-06-05T13:21:56;98988.38;;;26.11;31.91
55191;BME280;41070;50.360;18.742;2023-06-05T13:24:24;98989.48;;;26.19;31.32
55191;BME280;41070;50.360;18.742;2023-06-05T13:26:51;98985.20;;;26.16;31.37
55191;BME280;41070;50.360;18.742;2023-06-05T13:29:19;98980.33;;;26.11;31.72
55191;BME280;41070;50.360;18.742;2023-06-05T13:31:46;98979.80;;;26.05;32.47
55191;BME280;41070;50.360;18.742;2023-06-05T13:34:14;98980.27;;;25.95;31.98
55191;BME280;41070;50.360;18.742;2023-06-05T13:36:42;98978.09;;;25.91;31.51
55191;BME280;41070;50.360;18.742;2023-06-05T13:39:09;98979.70;;;25.84;30.82